createdAt,value
2019-03-03T00:03:08.073Z,4.48
2019-03-03T00:08:17.122Z,3.58
2019-03-03T00:13:26.309Z,3.93
2019-03-03T00:18:35.363Z,3.54
2019-03-03T00:23:48.694Z,5.17
2019-03-03T00:28:47.710Z,2.90
2019-03-03T00:33:56.931Z,1.84
2019-03-03T00:39:06.027Z,1.87
2019-03-03T00:44:15.133Z,2.09
2019-03-03T00:49:24.290Z,1.05
2019-03-03T00:54:33.391Z,1.34
2019-03-03T00:59:43.622Z,1.90
2019-03-03T01:04:42.763Z,1.78
2019-03-03T01:09:51.775Z,1.83
2019-03-03T01:15:00.956Z,1.30
2019-03-03T01:20:09.972Z,1.50
2019-03-03T01:25:19.095Z,1.67
2019-03-03T01:30:28.151Z,3.19
2019-03-03T01:35:37.383Z,4.14
2019-03-03T01:40:46.417Z,4.42
2019-03-03T01:45:55.545Z,3.79
2019-03-03T01:51:04.595Z,4.95
2019-03-03T01:56:13.770Z,5.13
2019-03-03T02:01:22.851Z,4.12
2019-03-03T02:06:32.001Z,5.71
2019-03-03T02:11:41.062Z,5.22
2019-03-03T02:16:50.169Z,4.94
2019-03-03T02:21:59.246Z,4.21
2019-03-03T02:27:08.570Z,4.35
2019-03-03T02:32:17.667Z,3.97
2019-03-03T02:37:26.742Z,4.54
2019-03-03T02:42:35.789Z,5.36
2019-03-03T02:47:45.267Z,4.12
2019-03-03T02:52:54.535Z,4.74
2019-03-03T02:58:03.684Z,5.58
2019-03-03T03:03:12.722Z,5.96
2019-03-03T03:08:21.899Z,5.95
2019-03-03T03:13:30.956Z,5.81
2019-03-03T03:18:40.084Z,5.22
2019-03-03T03:23:49.126Z,5.10
2019-03-03T03:28:58.246Z,4.46
2019-03-03T03:34:07.306Z,3.50
2019-03-03T03:39:16.421Z,4.02
2019-03-03T03:44:25.558Z,3.89
2019-03-03T03:49:34.637Z,3.89
2019-03-03T03:54:43.735Z,3.33
2019-03-03T03:59:52.853Z,3.75
2019-03-03T04:05:01.903Z,4.46
2019-03-03T04:10:11.033Z,4.02
2019-03-03T04:15:20.302Z,4.83
2019-03-03T04:20:29.605Z,4.83
2019-03-03T04:25:38.611Z,4.89
2019-03-03T04:30:47.735Z,5.44
2019-03-03T04:35:56.779Z,4.36
2019-03-03T04:41:05.919Z,4.59
2019-03-03T04:46:14.987Z,4.40
2019-03-03T04:51:24.125Z,5.47
2019-03-03T04:56:33.185Z,5.66
2019-03-03T05:01:42.497Z,6.65
2019-03-03T05:06:51.503Z,6.81
2019-03-03T05:12:00.671Z,6.06
2019-03-03T05:17:09.675Z,4.22
2019-03-03T05:22:18.833Z,5.10
2019-03-03T05:27:27.916Z,4.86
2019-03-03T05:32:37.152Z,6.08
2019-03-03T05:37:46.179Z,4.50
2019-03-03T05:42:55.419Z,5.21
2019-03-03T05:48:04.453Z,4.10
2019-03-03T05:53:13.574Z,4.98
2019-03-03T05:58:22.678Z,5.44
2019-03-03T06:03:31.951Z,4.72
2019-03-03T06:08:41.006Z,4.07
2019-03-03T06:13:50.146Z,2.87
2019-03-03T06:18:59.226Z,3.98
2019-03-03T06:24:08.304Z,2.90
2019-03-03T06:29:17.350Z,3.24
2019-03-03T06:34:26.535Z,3.34
2019-03-03T06:39:35.722Z,4.35
2019-03-03T06:44:44.807Z,3.68
2019-03-03T06:49:53.945Z,4.81
2019-03-03T06:55:03.242Z,3.63
2019-03-03T07:00:12.285Z,3.75
2019-03-03T07:05:21.350Z,4.15
2019-03-03T07:10:30.386Z,4.06
2019-03-03T07:15:39.582Z,2.64
2019-03-03T07:20:48.675Z,3.71
2019-03-03T07:25:57.835Z,3.42
2019-03-03T07:31:06.918Z,3.69
2019-03-03T07:36:16.074Z,4.62
2019-03-03T07:41:25.147Z,4.84
2019-03-03T07:46:34.296Z,4.40
2019-03-03T07:51:43.327Z,4.86
2019-03-03T07:56:52.418Z,5.24
2019-03-03T08:02:01.462Z,4.02
2019-03-03T08:07:10.538Z,4.48
2019-03-03T08:12:19.584Z,3.98
2019-03-03T08:17:28.715Z,4.30
2019-03-03T08:22:37.770Z,4.66
2019-03-03T08:27:47.217Z,4.23
2019-03-03T08:32:56.279Z,4.16
2019-03-03T08:38:05.417Z,4.11
2019-03-03T08:43:14.450Z,4.13
2019-03-03T08:48:23.569Z,3.87
2019-03-03T08:53:33.579Z,4.29
2019-03-03T08:58:32.705Z,3.87
2019-03-03T09:03:41.813Z,3.66
2019-03-03T09:08:51.214Z,3.42
2019-03-03T09:14:00.267Z,3.53
2019-03-03T09:19:09.391Z,3.79
2019-03-03T09:24:18.437Z,3.38
2019-03-03T09:29:26.621Z,3.59
2019-03-03T09:34:35.718Z,3.57
2019-03-03T09:39:45.386Z,4.18
2019-03-03T09:44:54.390Z,3.23
2019-03-03T09:50:03.605Z,1.48
2019-03-03T09:55:12.703Z,1.85
2019-03-03T10:00:20.439Z,1.81
2019-03-03T10:05:29.516Z,1.76
2019-03-03T10:10:38.664Z,2.43
2019-03-03T10:15:47.882Z,2.09
2019-03-03T10:20:57.031Z,2.32
2019-03-03T10:26:06.042Z,2.91
2019-03-03T10:31:15.263Z,2.44
2019-03-03T10:36:24.338Z,2.84
2019-03-03T10:41:34.558Z,2.36
2019-03-03T10:46:33.566Z,2.37
2019-03-03T10:51:42.688Z,1.65
2019-03-03T10:56:51.755Z,1.83
2019-03-03T11:02:00.963Z,2.59
2019-03-03T11:07:09.995Z,3.24
2019-03-03T11:12:19.327Z,2.92
2019-03-03T11:17:28.342Z,3.54
2019-03-03T11:22:36.161Z,3.77
2019-03-03T11:27:45.762Z,4.12
2019-03-03T11:32:54.883Z,4.46
2019-03-03T11:38:03.954Z,3.75
2019-03-03T11:43:13.230Z,4.18
2019-03-03T11:48:22.288Z,3.57
2019-03-03T11:53:31.402Z,3.87
2019-03-03T11:58:40.448Z,4.22
2019-03-03T12:03:49.558Z,4.37
2019-03-03T12:08:58.621Z,4.34
2019-03-03T12:14:07.882Z,4.73
2019-03-03T12:19:16.966Z,3.33
2019-03-03T12:24:26.082Z,4.34
2019-03-03T12:29:35.130Z,4.51
2019-03-03T12:34:44.992Z,2.96
2019-03-03T12:39:54.047Z,3.71
2019-03-03T12:45:03.251Z,3.56
2019-03-03T12:50:12.305Z,3.22
2019-03-03T12:55:21.454Z,3.41
2019-03-03T13:00:30.531Z,3.72
2019-03-03T13:05:39.618Z,3.49
2019-03-03T13:10:48.682Z,2.86
2019-03-03T13:15:57.926Z,3.46
2019-03-03T13:21:06.998Z,3.06
2019-03-03T13:26:16.178Z,3.35
2019-03-03T13:31:25.230Z,3.86
2019-03-03T13:36:34.306Z,4.34
2019-03-03T13:41:43.359Z,2.54
2019-03-03T13:46:52.492Z,2.55
2019-03-03T13:52:01.571Z,3.31
2019-03-03T13:57:10.811Z,3.39
2019-03-03T14:02:19.858Z,2.44
2019-03-03T14:07:28.987Z,2.75
2019-03-03T14:12:38.478Z,3.21
2019-03-03T14:17:46.696Z,2.74
2019-03-03T14:22:55.772Z,2.90
2019-03-03T14:28:04.991Z,2.61
2019-03-03T14:33:14.061Z,2.88
2019-03-03T14:38:23.204Z,2.57
2019-03-03T14:43:32.287Z,3.00
2019-03-03T14:48:41.473Z,2.11
2019-03-03T14:53:50.578Z,1.67
2019-03-03T14:58:59.734Z,1.56
2019-03-03T15:04:08.791Z,2.31
2019-03-03T15:09:18.046Z,2.55
2019-03-03T15:14:27.193Z,2.80
2019-03-03T15:19:36.409Z,2.30
2019-03-03T15:24:45.470Z,3.00
2019-03-03T15:29:54.598Z,2.99
2019-03-03T15:35:03.623Z,3.13
2019-03-03T15:40:12.818Z,2.86
2019-03-03T15:45:21.883Z,2.54
2019-03-03T15:50:31.194Z,3.13
2019-03-03T15:55:40.245Z,2.96
2019-03-03T16:00:49.887Z,3.26
2019-03-03T16:05:58.937Z,3.12
2019-03-03T16:11:08.078Z,2.40
2019-03-03T16:16:17.179Z,2.96
2019-03-03T16:21:26.375Z,1.94
2019-03-03T16:26:35.462Z,1.89
2019-03-03T16:31:44.562Z,1.27
2019-03-03T16:36:53.614Z,1.46
2019-03-03T16:42:02.764Z,1.52
2019-03-03T16:47:11.771Z,1.79
2019-03-03T16:52:22.007Z,1.25
2019-03-03T16:57:21.037Z,1.66
2019-03-03T17:02:30.182Z,1.94
2019-03-03T17:07:39.374Z,1.44
2019-03-03T17:12:48.641Z,2.50
2019-03-03T17:17:57.695Z,2.37
2019-03-03T17:23:07.894Z,1.98
2019-03-03T17:28:06.900Z,2.17
2019-03-03T17:33:16.090Z,2.01
2019-03-03T17:38:25.150Z,1.74
2019-03-03T17:43:36.042Z,1.78
2019-03-03T17:48:43.008Z,1.96
2019-03-03T17:53:52.146Z,1.71
2019-03-03T17:59:01.212Z,1.97
2019-03-03T18:04:10.337Z,2.26
2019-03-03T18:09:19.407Z,2.21
2019-03-03T18:14:28.634Z,2.27
2019-03-03T18:19:37.740Z,1.90
2019-03-03T18:24:46.846Z,1.83
2019-03-03T18:29:55.857Z,1.53
2019-03-03T18:35:05.022Z,2.32
2019-03-03T18:40:14.063Z,1.54
2019-03-03T18:45:23.196Z,1.50
2019-03-03T18:50:34.267Z,1.87
2019-03-03T18:55:33.372Z,2.16
2019-03-03T19:00:42.455Z,2.05
2019-03-03T19:05:55.769Z,1.87
2019-03-03T19:11:00.710Z,2.18
2019-03-03T19:16:08.426Z,1.75
2019-03-03T19:21:17.490Z,2.51
2019-03-03T19:26:26.600Z,1.77
2019-03-03T19:31:35.642Z,1.77
2019-03-03T19:36:45.886Z,2.04
2019-03-03T19:41:53.382Z,1.71
2019-03-03T19:47:02.547Z,1.98
2019-03-03T19:52:11.638Z,2.08
2019-03-03T19:57:20.910Z,1.85
2019-03-03T20:02:29.996Z,1.95
2019-03-03T20:07:39.117Z,1.83
2019-03-03T20:12:48.214Z,1.84
2019-03-03T20:17:57.342Z,1.51
2019-03-03T20:23:06.412Z,1.76
2019-03-03T20:28:15.587Z,1.30
2019-03-03T20:33:24.653Z,1.77
2019-03-03T20:38:33.796Z,1.52
2019-03-03T20:43:42.846Z,1.62
2019-03-03T20:48:52.392Z,1.51
2019-03-03T20:54:01.494Z,1.86
2019-03-03T20:59:10.697Z,1.52
2019-03-03T21:04:19.745Z,1.81
2019-03-03T21:09:28.890Z,2.13
2019-03-03T21:14:38.275Z,1.85
2019-03-03T21:19:47.413Z,1.57
2019-03-03T21:24:56.520Z,1.79
2019-03-03T21:30:05.733Z,1.75
2019-03-03T21:35:14.831Z,1.74
2019-03-03T21:40:23.985Z,1.79
2019-03-03T21:45:33.014Z,1.48
2019-03-03T21:50:42.247Z,1.44
2019-03-03T21:55:51.311Z,1.05
2019-03-03T22:01:00.550Z,1.02
2019-03-03T22:06:10.553Z,1.07
2019-03-03T22:11:09.670Z,1.21
2019-03-03T22:16:18.734Z,1.05
2019-03-03T22:21:27.854Z,1.07
2019-03-03T22:26:36.885Z,0.94
2019-03-03T22:31:46.033Z,1.27
2019-03-03T22:36:55.078Z,1.05
2019-03-03T22:42:04.428Z,1.27
2019-03-03T22:47:13.489Z,0.78
2019-03-03T22:52:23.642Z,1.16
2019-03-03T22:57:22.667Z,1.10
2019-03-03T23:02:31.943Z,1.05
2019-03-03T23:07:40.990Z,1.30
2019-03-03T23:12:50.124Z,1.03
2019-03-03T23:17:59.176Z,1.15
2019-03-03T23:23:08.319Z,1.51
2019-03-03T23:28:17.377Z,1.06
2019-03-03T23:33:26.491Z,1.19
2019-03-03T23:38:35.590Z,1.19
2019-03-03T23:43:44.800Z,1.01
2019-03-03T23:48:53.825Z,1.09
2019-03-03T23:54:02.962Z,1.27
2019-03-03T23:59:11.987Z,1.36
